createdAt,value
2019-03-29T00:00:03.149Z,1005.5
2019-03-29T00:01:03.160Z,1005.5
2019-03-29T00:02:03.124Z,1005.48
2019-03-29T00:03:03.119Z,1005.45
2019-03-29T00:04:03.126Z,1005.45
2019-03-29T00:05:03.114Z,1005.44
2019-03-29T00:06:03.116Z,1005.37
2019-03-29T00:07:03.940Z,1005.38
2019-03-29T00:08:03.114Z,1005.38
2019-03-29T00:09:03.096Z,1005.35
2019-03-29T00:10:03.096Z,1005.32
2019-03-29T00:11:03.074Z,1005.36
2019-03-29T00:12:03.072Z,1005.3
2019-03-29T00:13:03.069Z,1005.34
2019-03-29T00:14:03.068Z,1005.33
2019-03-29T00:15:03.055Z,1005.32
2019-03-29T00:16:03.049Z,1005.3
2019-03-29T00:17:03.044Z,1005.29
2019-03-29T00:18:03.039Z,1005.3
2019-03-29T00:19:03.037Z,1005.3
2019-03-29T00:20:07.829Z,1005.32
2019-03-29T00:21:03.021Z,1005.29
2019-03-29T00:22:03.017Z,1005.35
2019-03-29T00:23:03.017Z,1005.35
2019-03-29T00:24:06.818Z,1005.35
2019-03-29T00:25:03.003Z,1005.4
2019-03-29T00:26:02.999Z,1005.38
2019-03-29T00:27:02.991Z,1005.39
2019-03-29T00:28:02.992Z,1005.35
2019-03-29T00:29:03.169Z,1005.36
2019-03-29T00:30:02.981Z,1005.41
2019-03-29T00:31:02.975Z,1005.38
2019-03-29T00:32:02.963Z,1005.43
2019-03-29T00:33:02.954Z,1005.42
2019-03-29T00:34:02.948Z,1005.42
2019-03-29T00:35:02.942Z,1005.41
2019-03-29T00:36:02.939Z,1005.42
2019-03-29T00:37:02.931Z,1005.43
2019-03-29T00:38:02.928Z,1005.47
2019-03-29T00:39:02.921Z,1005.46
2019-03-29T00:40:02.930Z,1005.46
2019-03-29T00:41:02.911Z,1005.46
2019-03-29T00:42:02.902Z,1005.46
2019-03-29T00:43:02.898Z,1005.42
2019-03-29T00:44:02.892Z,1005.46
2019-03-29T00:45:02.887Z,1005.42
2019-03-29T00:46:02.881Z,1005.45
2019-03-29T00:47:03.341Z,1005.43
2019-03-29T00:48:02.873Z,1005.42
2019-03-29T00:49:02.871Z,1005.47
2019-03-29T00:50:02.858Z,1005.42
2019-03-29T00:51:02.853Z,1005.43
2019-03-29T00:52:02.846Z,1005.4
2019-03-29T00:53:02.840Z,1005.46
2019-03-29T00:54:02.845Z,1005.44
2019-03-29T00:55:02.833Z,1005.42
2019-03-29T00:56:03.627Z,1005.41
2019-03-29T00:57:02.815Z,1005.43
2019-03-29T00:58:02.816Z,1005.41
2019-03-29T00:59:02.805Z,1005.37
2019-03-29T01:00:02.798Z,1005.39
2019-03-29T01:01:02.792Z,1005.39
2019-03-29T01:02:02.798Z,1005.39
2019-03-29T01:03:02.786Z,1005.39
2019-03-29T01:04:03.043Z,1005.37
2019-03-29T01:05:02.772Z,1005.42
2019-03-29T01:06:02.764Z,1005.37
2019-03-29T01:07:02.762Z,1005.36
2019-03-29T01:08:07.954Z,1005.32
2019-03-29T01:09:02.751Z,1005.34
2019-03-29T01:10:02.737Z,1005.36
2019-03-29T01:11:02.734Z,1005.34
2019-03-29T01:12:02.728Z,1005.34
2019-03-29T01:13:02.721Z,1005.35
2019-03-29T01:14:02.718Z,1005.34
2019-03-29T01:15:02.707Z,1005.28
2019-03-29T01:16:02.705Z,1005.33
2019-03-29T01:17:02.699Z,1005.27
2019-03-29T01:18:02.699Z,1005.26
2019-03-29T01:19:03.332Z,1005.25
2019-03-29T01:20:02.679Z,1005.27
2019-03-29T01:21:02.678Z,1005.29
2019-03-29T01:22:02.667Z,1005.28
2019-03-29T01:23:02.659Z,1005.25
2019-03-29T01:24:02.664Z,1005.23
2019-03-29T01:25:02.652Z,1005.22
2019-03-29T01:26:02.647Z,1005.25
2019-03-29T01:27:02.637Z,1005.22
2019-03-29T01:28:02.645Z,1005.22
2019-03-29T01:29:02.627Z,1005.23
2019-03-29T01:30:02.621Z,1005.22
2019-03-29T01:31:02.616Z,1005.2
2019-03-29T01:32:02.610Z,1005.17
2019-03-29T01:33:02.600Z,1005.2
2019-03-29T01:34:02.595Z,1005.21
2019-03-29T01:35:02.592Z,1005.22
2019-03-29T01:36:02.594Z,1005.24
2019-03-29T01:37:02.579Z,1005.23
2019-03-29T01:38:02.572Z,1005.22
2019-03-29T01:39:02.567Z,1005.2
2019-03-29T01:40:02.594Z,1005.19
2019-03-29T01:41:02.584Z,1005.24
2019-03-29T01:42:02.551Z,1005.22
2019-03-29T01:43:02.544Z,1005.23
2019-03-29T01:44:02.540Z,1005.22
2019-03-29T01:45:02.536Z,1005.18
2019-03-29T01:46:02.525Z,1005.25
2019-03-29T01:47:03.257Z,1005.23
2019-03-29T01:48:02.522Z,1005.21
2019-03-29T01:49:02.510Z,1005.2
2019-03-29T01:50:02.512Z,1005.21
2019-03-29T01:51:02.512Z,1005.19
2019-03-29T01:52:02.662Z,1005.23
2019-03-29T01:53:02.485Z,1005.21
2019-03-29T01:54:02.481Z,1005.24
2019-03-29T01:55:02.567Z,1005.21
2019-03-29T01:56:02.470Z,1005.23
2019-03-29T01:57:02.461Z,1005.22
2019-03-29T01:58:02.472Z,1005.23
2019-03-29T01:59:02.452Z,1005.22
2019-03-29T02:00:02.443Z,1005.23
2019-03-29T02:01:03.021Z,1005.2
2019-03-29T02:02:02.432Z,1005.16
2019-03-29T02:03:02.426Z,1005.18
2019-03-29T02:04:05.586Z,1005.19
2019-03-29T02:05:02.416Z,1005.19
2019-03-29T02:06:02.407Z,1005.2
2019-03-29T02:07:02.404Z,1005.19
2019-03-29T02:08:02.411Z,1005.18
2019-03-29T02:09:02.392Z,1005.18
2019-03-29T02:10:02.390Z,1005.19
2019-03-29T02:11:02.385Z,1005.14
2019-03-29T02:12:02.395Z,1005.13
2019-03-29T02:13:02.367Z,1005.14
2019-03-29T02:14:02.360Z,1005.12
2019-03-29T02:15:02.357Z,1005.1
2019-03-29T02:16:03.157Z,1005.09
2019-03-29T02:17:02.359Z,1005.11
2019-03-29T02:18:02.338Z,1005.07
2019-03-29T02:19:02.333Z,1005.1
2019-03-29T02:20:02.331Z,1005.09
2019-03-29T02:21:02.333Z,1005.06
2019-03-29T02:22:02.319Z,1005.08
2019-03-29T02:23:02.394Z,1005.09
2019-03-29T02:24:02.302Z,1005.04
2019-03-29T02:25:02.299Z,1005.07
2019-03-29T02:26:02.294Z,1005.05
2019-03-29T02:27:02.287Z,1005.02
2019-03-29T02:28:02.279Z,1005
2019-03-29T02:29:02.275Z,1004.97
2019-03-29T02:30:04.170Z,1004.95
2019-03-29T02:31:02.264Z,1004.98
2019-03-29T02:32:02.268Z,1004.97
2019-03-29T02:33:02.437Z,1004.95
2019-03-29T02:34:02.243Z,1004.95
2019-03-29T02:35:02.247Z,1005.01
2019-03-29T02:36:02.237Z,1005.01
2019-03-29T02:37:02.702Z,1005.03
2019-03-29T02:38:02.238Z,1005.05
2019-03-29T02:39:02.212Z,1005.04
2019-03-29T02:40:02.232Z,1005.02
2019-03-29T02:41:02.203Z,1005.05
2019-03-29T02:42:02.202Z,1005.01
2019-03-29T02:43:02.213Z,1005.01
2019-03-29T02:44:02.189Z,1005
2019-03-29T02:45:03.289Z,1005.01
2019-03-29T02:46:02.174Z,1005
2019-03-29T02:47:02.167Z,1004.97
2019-03-29T02:48:02.173Z,1005.01
2019-03-29T02:49:02.153Z,1004.97
2019-03-29T02:50:02.147Z,1004.98
2019-03-29T02:51:02.141Z,1005
2019-03-29T02:52:02.286Z,1004.97
2019-03-29T02:53:02.128Z,1004.98
2019-03-29T02:54:02.126Z,1004.99
2019-03-29T02:55:02.112Z,1004.97
2019-03-29T02:56:02.108Z,1005.01
2019-03-29T02:57:02.104Z,1005
2019-03-29T02:58:02.095Z,1005.01
2019-03-29T02:59:02.099Z,1005.01
2019-03-29T03:00:02.090Z,1005.03
2019-03-29T03:01:02.080Z,1004.98
2019-03-29T03:02:02.076Z,1004.95
2019-03-29T03:03:02.069Z,1004.96
2019-03-29T03:04:02.056Z,1004.95
2019-03-29T03:05:02.059Z,1004.95
2019-03-29T03:06:02.054Z,1004.98
2019-03-29T03:07:02.055Z,1005
2019-03-29T03:08:02.039Z,1005.01
2019-03-29T03:09:12.771Z,1004.97
2019-03-29T03:10:02.024Z,1004.96
2019-03-29T03:11:02.012Z,1004.98
2019-03-29T03:12:02.022Z,1004.95
2019-03-29T03:13:02.006Z,1004.96
2019-03-29T03:14:01.995Z,1004.94
2019-03-29T03:15:01.988Z,1004.97
2019-03-29T03:16:01.985Z,1004.95
2019-03-29T03:17:01.973Z,1004.91
2019-03-29T03:18:01.968Z,1004.91
2019-03-29T03:19:01.959Z,1004.86
2019-03-29T03:20:01.952Z,1004.84
2019-03-29T03:21:01.975Z,1004.87
2019-03-29T03:22:01.939Z,1004.84
2019-03-29T03:23:01.955Z,1004.84
2019-03-29T03:24:01.931Z,1004.84
2019-03-29T03:25:01.920Z,1004.82
2019-03-29T03:26:01.959Z,1004.86
2019-03-29T03:27:01.903Z,1004.85
2019-03-29T03:28:01.906Z,1004.87
2019-03-29T03:29:01.902Z,1004.89
2019-03-29T03:30:01.926Z,1004.87
2019-03-29T03:31:01.884Z,1004.84
2019-03-29T03:32:01.871Z,1004.83
2019-03-29T03:33:01.934Z,1004.82
2019-03-29T03:34:01.870Z,1004.83
2019-03-29T03:35:01.857Z,1004.84
2019-03-29T03:36:01.853Z,1004.85
2019-03-29T03:37:01.848Z,1004.84
2019-03-29T03:38:01.831Z,1004.88
2019-03-29T03:39:01.819Z,1004.87
2019-03-29T03:40:01.842Z,1004.86
2019-03-29T03:41:01.803Z,1004.86
2019-03-29T03:42:01.799Z,1004.87
2019-03-29T03:43:01.789Z,1004.95
2019-03-29T03:44:01.788Z,1004.88
2019-03-29T03:45:01.784Z,1004.88
2019-03-29T03:46:01.772Z,1004.88
2019-03-29T03:47:01.764Z,1004.87
2019-03-29T03:48:01.758Z,1004.88
2019-03-29T03:49:01.755Z,1004.85
2019-03-29T03:50:02.098Z,1004.88
2019-03-29T03:51:01.734Z,1004.83
2019-03-29T03:52:03.532Z,1004.86
2019-03-29T03:53:01.721Z,1004.86
2019-03-29T03:54:01.715Z,1004.86
2019-03-29T03:55:01.711Z,1004.84
2019-03-29T03:56:01.701Z,1004.83
2019-03-29T03:57:01.695Z,1004.85
2019-03-29T03:58:01.681Z,1004.87
2019-03-29T03:59:01.681Z,1004.86
2019-03-29T04:00:01.668Z,1004.82
2019-03-29T04:01:01.698Z,1004.82
2019-03-29T04:02:01.656Z,1004.81
2019-03-29T04:03:01.650Z,1004.84
2019-03-29T04:04:01.642Z,1004.84
2019-03-29T04:05:01.642Z,1004.84
2019-03-29T04:06:01.631Z,1004.86
2019-03-29T04:07:01.682Z,1004.8
2019-03-29T04:08:01.613Z,1004.87
2019-03-29T04:09:01.731Z,1004.85
2019-03-29T04:10:01.598Z,1004.85
2019-03-29T04:11:01.602Z,1004.81
2019-03-29T04:12:01.583Z,1004.84
2019-03-29T04:13:01.579Z,1004.84
2019-03-29T04:14:01.573Z,1004.82
2019-03-29T04:15:01.560Z,1004.91
2019-03-29T04:16:01.557Z,1004.88
2019-03-29T04:17:01.547Z,1004.83
2019-03-29T04:18:01.538Z,1004.84
2019-03-29T04:19:01.531Z,1004.85
2019-03-29T04:20:01.523Z,1004.85
2019-03-29T04:21:01.518Z,1004.87
2019-03-29T04:22:01.507Z,1004.86
2019-03-29T04:23:01.498Z,1004.86
2019-03-29T04:24:01.500Z,1004.87
2019-03-29T04:25:01.495Z,1004.87
2019-03-29T04:26:01.478Z,1004.82
2019-03-29T04:27:01.495Z,1004.83
2019-03-29T04:28:01.463Z,1004.85
2019-03-29T04:29:04.512Z,1004.85
2019-03-29T04:30:01.451Z,1004.84
2019-03-29T04:31:01.440Z,1004.88
2019-03-29T04:32:01.435Z,1004.89
2019-03-29T04:33:01.427Z,1004.9
2019-03-29T04:34:01.424Z,1004.88
2019-03-29T04:35:01.440Z,1004.9
2019-03-29T04:36:01.403Z,1004.95
2019-03-29T04:37:01.398Z,1004.95
2019-03-29T04:38:01.388Z,1004.89
2019-03-29T04:39:01.411Z,1004.9
2019-03-29T04:40:07.358Z,1004.86
2019-03-29T04:41:01.363Z,1004.87
2019-03-29T04:42:01.358Z,1004.9
2019-03-29T04:43:01.351Z,1004.87
2019-03-29T04:44:01.345Z,1004.88
2019-03-29T04:45:01.340Z,1004.88
2019-03-29T04:46:01.343Z,1004.9
2019-03-29T04:47:01.320Z,1004.89
2019-03-29T04:48:01.312Z,1004.86
2019-03-29T04:49:01.315Z,1004.88
2019-03-29T04:50:01.299Z,1004.93
2019-03-29T04:51:01.290Z,1004.98
2019-03-29T04:52:01.281Z,1004.96
2019-03-29T04:53:01.274Z,1004.87
2019-03-29T04:54:01.268Z,1004.89
2019-03-29T04:55:01.258Z,1004.93
2019-03-29T04:56:01.262Z,1004.91
2019-03-29T04:57:01.246Z,1004.84
2019-03-29T04:58:01.236Z,1004.85
2019-03-29T04:59:01.228Z,1004.87
2019-03-29T05:00:01.220Z,1004.87
2019-03-29T05:01:01.215Z,1004.86
2019-03-29T05:02:01.206Z,1004.91
2019-03-29T05:03:01.200Z,1004.83
2019-03-29T05:04:01.190Z,1004.85
2019-03-29T05:05:01.194Z,1004.85
2019-03-29T05:06:01.182Z,1004.9
2019-03-29T05:07:01.168Z,1004.86
2019-03-29T05:08:01.159Z,1004.86
2019-03-29T05:09:01.155Z,1004.85
2019-03-29T05:10:01.144Z,1004.9
2019-03-29T05:11:01.137Z,1004.88
2019-03-29T05:12:01.127Z,1004.89
2019-03-29T05:13:01.121Z,1004.97
2019-03-29T05:14:01.114Z,1004.94
2019-03-29T05:15:01.105Z,1004.91
2019-03-29T05:16:01.096Z,1004.94
2019-03-29T05:17:01.094Z,1004.94
2019-03-29T05:18:01.087Z,1004.99
2019-03-29T05:19:01.073Z,1004.96
2019-03-29T05:20:01.065Z,1005.02
2019-03-29T05:21:01.057Z,1004.97
2019-03-29T05:22:01.049Z,1005.02
2019-03-29T05:23:01.055Z,1005.03
2019-03-29T05:24:01.035Z,1004.97
2019-03-29T05:25:01.026Z,1005.02
2019-03-29T05:26:01.020Z,1005.01
2019-03-29T05:27:01.015Z,1005.03
2019-03-29T05:28:01.005Z,1004.97
2019-03-29T05:29:00.996Z,1004.98
2019-03-29T05:30:00.990Z,1004.99
2019-03-29T05:31:01.008Z,1004.94
2019-03-29T05:32:00.980Z,1004.96
2019-03-29T05:33:00.969Z,1004.97
2019-03-29T05:34:00.958Z,1004.98
2019-03-29T05:35:00.959Z,1004.94
2019-03-29T05:36:00.944Z,1004.96
2019-03-29T05:37:00.940Z,1005
2019-03-29T05:38:00.932Z,1005
2019-03-29T05:39:00.923Z,1005
2019-03-29T05:40:00.919Z,1004.95
2019-03-29T05:41:00.916Z,1004.98
2019-03-29T05:42:00.901Z,1004.99
2019-03-29T05:43:00.892Z,1004.96
2019-03-29T05:44:00.884Z,1004.97
2019-03-29T05:45:00.875Z,1004.97
2019-03-29T05:46:00.874Z,1005.01
2019-03-29T05:47:00.861Z,1004.96
2019-03-29T05:48:00.854Z,1004.97
2019-03-29T05:49:00.849Z,1004.99
2019-03-29T05:50:00.841Z,1004.98
2019-03-29T05:51:00.834Z,1005.02
2019-03-29T05:52:00.825Z,1005.03
2019-03-29T05:53:00.835Z,1004.98
2019-03-29T05:54:00.816Z,1005.02
2019-03-29T05:55:00.806Z,1005.02
2019-03-29T05:56:00.797Z,1005.03
2019-03-29T05:57:00.789Z,1005.04
2019-03-29T05:58:00.783Z,1005.06
2019-03-29T05:59:00.781Z,1005.02
2019-03-29T06:00:00.768Z,1005.11
2019-03-29T06:01:00.764Z,1005.09
2019-03-29T06:02:00.756Z,1005.04
2019-03-29T06:03:00.752Z,1005.07
2019-03-29T06:04:00.742Z,1005.09
2019-03-29T06:05:00.738Z,1005.12
2019-03-29T06:06:00.748Z,1005.07
2019-03-29T06:07:00.725Z,1005.12
2019-03-29T06:08:00.727Z,1005.08
2019-03-29T06:09:00.710Z,1005.06
2019-03-29T06:10:00.704Z,1005.09
2019-03-29T06:11:00.702Z,1005.12
2019-03-29T06:12:00.693Z,1005.07
2019-03-29T06:13:00.686Z,1005.08
2019-03-29T06:14:00.678Z,1005.05
2019-03-29T06:15:00.671Z,1005.05
2019-03-29T06:16:00.666Z,1005.02
2019-03-29T06:17:00.660Z,1004.98
2019-03-29T06:18:00.652Z,1004.98
2019-03-29T06:19:00.647Z,1004.98
2019-03-29T06:20:00.638Z,1004.99
2019-03-29T06:21:00.633Z,1004.98
2019-03-29T06:22:00.627Z,1004.97
2019-03-29T06:23:00.625Z,1004.98
2019-03-29T06:24:00.615Z,1004.92
2019-03-29T06:25:00.610Z,1004.95
2019-03-29T06:26:00.607Z,1004.92
2019-03-29T06:27:00.601Z,1004.9
2019-03-29T06:28:00.633Z,1004.94
2019-03-29T06:29:00.588Z,1004.91
2019-03-29T06:30:00.584Z,1004.94
2019-03-29T06:31:00.578Z,1004.91
2019-03-29T06:32:00.586Z,1004.92
2019-03-29T06:33:00.567Z,1004.95
2019-03-29T06:34:00.556Z,1004.93
2019-03-29T06:35:00.551Z,1004.95
2019-03-29T06:36:00.569Z,1004.96
2019-03-29T06:37:00.544Z,1005
2019-03-29T06:38:00.538Z,1004.93
2019-03-29T06:39:00.526Z,1004.93
2019-03-29T06:40:00.523Z,1004.9
2019-03-29T06:41:03.057Z,1004.89
2019-03-29T06:42:00.514Z,1004.88
2019-03-29T06:43:00.506Z,1004.88
2019-03-29T06:44:00.500Z,1004.85
2019-03-29T06:45:00.496Z,1004.86
2019-03-29T06:46:00.488Z,1004.87
2019-03-29T06:47:00.497Z,1004.9
2019-03-29T06:48:00.492Z,1004.86
2019-03-29T06:49:00.494Z,1004.9
2019-03-29T06:50:00.469Z,1004.87
2019-03-29T06:51:00.462Z,1004.91
2019-03-29T06:52:00.459Z,1004.88
2019-03-29T06:53:00.456Z,1004.85
2019-03-29T06:54:00.449Z,1004.87
2019-03-29T06:55:00.510Z,1004.83
2019-03-29T06:56:00.448Z,1004.86
2019-03-29T06:57:00.444Z,1004.84
2019-03-29T06:58:00.442Z,1004.83
2019-03-29T06:59:00.449Z,1004.83
2019-03-29T07:00:00.514Z,1004.83
2019-03-29T07:01:00.441Z,1004.86
2019-03-29T07:02:00.436Z,1004.83
2019-03-29T07:03:00.437Z,1004.84
2019-03-29T07:04:00.438Z,1004.83
2019-03-29T07:05:00.488Z,1004.82
2019-03-29T07:06:00.444Z,1004.79
2019-03-29T07:07:00.456Z,1004.76
2019-03-29T07:08:00.445Z,1004.73
2019-03-29T07:09:00.435Z,1004.73
2019-03-29T07:10:00.447Z,1004.75
2019-03-29T07:11:00.448Z,1004.74
2019-03-29T07:12:00.460Z,1004.69
2019-03-29T07:13:00.438Z,1004.7
2019-03-29T07:14:00.437Z,1004.73
2019-03-29T07:15:00.444Z,1004.69
2019-03-29T07:16:00.442Z,1004.72
2019-03-29T07:17:00.441Z,1004.69
2019-03-29T07:18:00.459Z,1004.68
2019-03-29T07:19:00.469Z,1004.72
2019-03-29T07:20:00.442Z,1004.68
2019-03-29T07:21:00.467Z,1004.69
2019-03-29T07:22:00.429Z,1004.65
2019-03-29T07:23:00.431Z,1004.67
2019-03-29T07:24:00.457Z,1004.62
2019-03-29T07:25:00.450Z,1004.65
2019-03-29T07:26:00.435Z,1004.61
2019-03-29T07:27:00.445Z,1004.61
2019-03-29T07:28:00.435Z,1004.64
2019-03-29T07:29:00.460Z,1004.65
2019-03-29T07:30:00.515Z,1004.59
2019-03-29T07:31:00.449Z,1004.67
2019-03-29T07:32:00.455Z,1004.66
2019-03-29T07:33:00.449Z,1004.66
2019-03-29T07:34:00.452Z,1004.65
2019-03-29T07:35:00.460Z,1004.66
2019-03-29T07:36:00.464Z,1004.66
2019-03-29T07:37:00.457Z,1004.65
2019-03-29T07:38:00.458Z,1004.65
2019-03-29T07:39:00.467Z,1004.62
2019-03-29T07:40:00.467Z,1004.65
2019-03-29T07:41:00.470Z,1004.65
2019-03-29T07:42:00.470Z,1004.66
2019-03-29T07:43:00.541Z,1004.57
2019-03-29T07:44:00.477Z,1004.63
2019-03-29T07:45:00.480Z,1004.56
2019-03-29T07:46:00.484Z,1004.57
2019-03-29T07:47:00.488Z,1004.58
2019-03-29T07:48:00.494Z,1004.57
2019-03-29T07:49:00.497Z,1004.56
2019-03-29T07:50:00.501Z,1004.59
2019-03-29T07:51:00.500Z,1004.53
2019-03-29T07:52:00.506Z,1004.54
2019-03-29T07:53:00.515Z,1004.55
2019-03-29T07:54:00.517Z,1004.54
2019-03-29T07:55:00.521Z,1004.55
2019-03-29T07:56:00.521Z,1004.55
2019-03-29T07:57:00.538Z,1004.5
2019-03-29T07:58:00.530Z,1004.54
2019-03-29T07:59:00.527Z,1004.53
2019-03-29T08:00:00.624Z,1004.48
2019-03-29T08:01:00.542Z,1004.47
2019-03-29T08:02:00.664Z,1004.49
2019-03-29T08:03:00.545Z,1004.49
2019-03-29T08:04:00.547Z,1004.53
2019-03-29T08:05:00.589Z,1004.44
2019-03-29T08:06:00.562Z,1004.42
2019-03-29T08:07:00.568Z,1004.43
2019-03-29T08:08:00.566Z,1004.41
2019-03-29T08:09:01.005Z,1004.4
2019-03-29T08:10:03.293Z,1004.39
2019-03-29T08:11:00.692Z,1004.4
2019-03-29T08:12:00.590Z,1004.39
2019-03-29T08:13:00.613Z,1004.37
2019-03-29T08:14:00.594Z,1004.39
2019-03-29T08:15:00.598Z,1004.38
2019-03-29T08:16:00.617Z,1004.41
2019-03-29T08:17:00.615Z,1004.38
2019-03-29T08:18:01.670Z,1004.33
2019-03-29T08:19:00.625Z,1004.29
2019-03-29T08:20:24.802Z,1004.32
2019-03-29T08:21:00.631Z,1004.42
2019-03-29T08:22:00.642Z,1004.32
2019-03-29T08:23:00.633Z,1004.35
2019-03-29T08:24:00.642Z,1004.26
2019-03-29T08:25:00.732Z,1004.33
2019-03-29T08:26:00.654Z,1004.3
2019-03-29T08:27:00.661Z,1004.26
2019-03-29T08:28:00.657Z,1004.25
2019-03-29T08:29:00.663Z,1004.19
2019-03-29T08:30:00.667Z,1004.27
2019-03-29T08:31:00.671Z,1004.28
2019-03-29T08:32:00.675Z,1004.2
2019-03-29T08:33:00.679Z,1004.3
2019-03-29T08:34:00.681Z,1004.34
2019-03-29T08:35:00.687Z,1004.31
2019-03-29T08:36:00.691Z,1004.3
2019-03-29T08:37:00.692Z,1004.26
2019-03-29T08:38:00.696Z,1004.33
2019-03-29T08:39:00.696Z,1004.37
2019-03-29T08:40:00.708Z,1004.33
2019-03-29T08:41:00.702Z,1004.38
2019-03-29T08:42:00.942Z,1004.34
2019-03-29T08:43:00.706Z,1004.37
2019-03-29T08:44:00.707Z,1004.41
2019-03-29T08:45:00.709Z,1004.38
2019-03-29T08:46:00.708Z,1004.36
2019-03-29T08:47:00.713Z,1004.35
2019-03-29T08:48:02.138Z,1004.37
2019-03-29T08:49:00.715Z,1004.36
2019-03-29T08:50:00.713Z,1004.38
2019-03-29T08:51:00.711Z,1004.34
2019-03-29T08:52:00.710Z,1004.39
2019-03-29T08:53:00.713Z,1004.39
2019-03-29T08:54:02.313Z,1004.4
2019-03-29T08:55:00.717Z,1004.42
2019-03-29T08:56:00.710Z,1004.39
2019-03-29T08:57:00.714Z,1004.41
2019-03-29T08:58:00.715Z,1004.44
2019-03-29T08:59:00.719Z,1004.44
2019-03-29T09:00:00.711Z,1004.54
2019-03-29T09:01:00.846Z,1004.45
2019-03-29T09:02:00.721Z,1004.4
2019-03-29T09:03:00.725Z,1004.42
2019-03-29T09:04:05.374Z,1004.54
2019-03-29T09:05:00.708Z,1004.48
2019-03-29T09:06:00.713Z,1004.47
2019-03-29T09:07:00.707Z,1004.46
2019-03-29T09:08:00.704Z,1004.45
2019-03-29T09:09:00.705Z,1004.46
2019-03-29T09:10:00.703Z,1004.44
2019-03-29T09:11:00.706Z,1004.36
2019-03-29T09:12:13.615Z,1004.35
2019-03-29T09:13:03.934Z,1004.35
2019-03-29T09:14:00.701Z,1004.37
2019-03-29T09:15:03.559Z,1004.32
2019-03-29T09:16:00.701Z,1004.31
2019-03-29T09:17:00.700Z,1004.3
2019-03-29T09:18:00.705Z,1004.27
2019-03-29T09:19:00.697Z,1004.29
2019-03-29T09:20:00.697Z,1004.23
2019-03-29T09:21:00.696Z,1004.22
2019-03-29T09:22:00.697Z,1004.21
2019-03-29T09:23:00.697Z,1004.28
2019-03-29T09:24:00.700Z,1004.21
2019-03-29T09:25:00.698Z,1004.28
2019-03-29T09:26:00.697Z,1004.17
2019-03-29T09:27:00.695Z,1004.2
2019-03-29T09:28:00.716Z,1004.14
2019-03-29T09:29:00.703Z,1004.09
2019-03-29T09:30:00.700Z,1004.16
2019-03-29T09:31:00.701Z,1004.05
2019-03-29T09:32:00.704Z,1004.05
2019-03-29T09:33:00.698Z,1004.07
2019-03-29T09:34:00.698Z,1004.03
2019-03-29T09:35:00.686Z,1004.05
2019-03-29T09:36:00.694Z,1004.05
2019-03-29T09:37:00.689Z,1004.08
2019-03-29T09:38:00.693Z,1004.04
2019-03-29T09:39:00.693Z,1004
2019-03-29T09:40:00.690Z,1004.01
2019-03-29T09:41:00.689Z,1004.05
2019-03-29T09:42:00.684Z,1004.02
2019-03-29T09:43:08.467Z,1003.99
2019-03-29T09:44:00.685Z,1003.95
2019-03-29T09:45:00.679Z,1003.96
2019-03-29T09:46:03.233Z,1003.94
2019-03-29T09:47:00.675Z,1003.92
2019-03-29T09:48:00.676Z,1003.95
2019-03-29T09:49:00.668Z,1003.96
2019-03-29T09:50:00.665Z,1003.94
2019-03-29T09:51:00.669Z,1004.01
2019-03-29T09:52:00.672Z,1003.99
2019-03-29T09:53:01.326Z,1003.97
2019-03-29T09:54:00.661Z,1003.9
2019-03-29T09:55:00.665Z,1003.85
2019-03-29T09:56:00.663Z,1003.91
2019-03-29T09:57:00.659Z,1003.9
2019-03-29T09:58:00.655Z,1003.86
2019-03-29T09:59:00.657Z,1003.91
2019-03-29T10:00:00.653Z,1003.92
2019-03-29T10:01:00.649Z,1003.88
2019-03-29T10:02:00.650Z,1003.87
2019-03-29T10:03:00.649Z,1003.9
2019-03-29T10:04:00.648Z,1003.91
2019-03-29T10:05:00.762Z,1003.79
2019-03-29T10:06:00.646Z,1003.83
2019-03-29T10:07:00.646Z,1003.79
2019-03-29T10:08:00.670Z,1003.85
2019-03-29T10:09:00.640Z,1003.85
2019-03-29T10:10:00.647Z,1003.82
2019-03-29T10:11:00.641Z,1003.86
2019-03-29T10:12:00.643Z,1003.84
2019-03-29T10:13:00.637Z,1003.77
2019-03-29T10:14:00.657Z,1003.8
2019-03-29T10:15:00.642Z,1003.81
2019-03-29T10:16:00.638Z,1003.84
2019-03-29T10:17:00.634Z,1003.75
2019-03-29T10:18:00.636Z,1003.74
2019-03-29T10:19:00.638Z,1003.68
2019-03-29T10:20:00.646Z,1003.62
2019-03-29T10:21:00.642Z,1003.68
2019-03-29T10:22:00.637Z,1003.63
2019-03-29T10:23:00.632Z,1003.62
2019-03-29T10:24:00.634Z,1003.66
2019-03-29T10:25:02.830Z,1003.54
2019-03-29T10:26:00.633Z,1003.51
2019-03-29T10:27:00.657Z,1003.63
2019-03-29T10:28:00.632Z,1003.58
2019-03-29T10:29:00.632Z,1003.65
2019-03-29T10:30:00.635Z,1003.61
2019-03-29T10:31:00.632Z,1003.6
2019-03-29T10:32:00.634Z,1003.57
2019-03-29T10:33:00.635Z,1003.59
2019-03-29T10:34:00.635Z,1003.6
2019-03-29T10:35:00.633Z,1003.58
2019-03-29T10:36:00.636Z,1003.53
2019-03-29T10:37:00.633Z,1003.53
2019-03-29T10:38:00.636Z,1003.56
2019-03-29T10:39:00.638Z,1003.5
2019-03-29T10:40:00.639Z,1003.51
2019-03-29T10:41:00.633Z,1003.52
2019-03-29T10:42:00.642Z,1003.53
2019-03-29T10:43:00.635Z,1003.44
2019-03-29T10:44:00.636Z,1003.49
2019-03-29T10:45:00.635Z,1003.44
2019-03-29T10:46:00.638Z,1003.43
2019-03-29T10:47:00.636Z,1003.47
2019-03-29T10:48:00.642Z,1003.4
2019-03-29T10:49:00.634Z,1003.42
2019-03-29T10:50:00.637Z,1003.42
2019-03-29T10:51:00.637Z,1003.34
2019-03-29T10:52:00.645Z,1003.34
2019-03-29T10:53:00.645Z,1003.31
2019-03-29T10:54:00.637Z,1003.27
2019-03-29T10:55:00.639Z,1003.27
2019-03-29T10:56:00.637Z,1003.3
2019-03-29T10:57:00.638Z,1003.26
2019-03-29T10:58:00.644Z,1003.23
2019-03-29T10:59:00.640Z,1003.22
2019-03-29T11:00:00.642Z,1003.28
2019-03-29T11:01:00.637Z,1003.23
2019-03-29T11:02:00.643Z,1003.25
2019-03-29T11:03:00.643Z,1003.22
2019-03-29T11:04:00.641Z,1003.16
2019-03-29T11:05:00.644Z,1003.16
2019-03-29T11:06:00.643Z,1003.07
2019-03-29T11:07:00.642Z,1003.12
2019-03-29T11:08:00.643Z,1003.08
2019-03-29T11:09:00.649Z,1003.14
2019-03-29T11:10:00.641Z,1003.08
2019-03-29T11:11:00.644Z,1003.08
2019-03-29T11:12:00.642Z,1003.08
2019-03-29T11:13:11.639Z,1003.08
2019-03-29T11:14:00.643Z,1003.12
2019-03-29T11:15:00.645Z,1003.06
2019-03-29T11:16:00.656Z,1003.11
2019-03-29T11:17:00.651Z,1003.08
2019-03-29T11:18:00.646Z,1003.06
2019-03-29T11:19:00.659Z,1003.06
2019-03-29T11:20:00.645Z,1003.13
2019-03-29T11:21:00.644Z,1003.12
2019-03-29T11:22:00.645Z,1003.12
2019-03-29T11:23:00.646Z,1003.14
2019-03-29T11:24:00.645Z,1003.14
2019-03-29T11:25:00.642Z,1003.15
2019-03-29T11:26:00.792Z,1003.16
2019-03-29T11:27:00.638Z,1003.1
2019-03-29T11:28:00.639Z,1003.15
2019-03-29T11:29:00.641Z,1003.09
2019-03-29T11:30:00.640Z,1003.08
2019-03-29T11:31:00.640Z,1003.03
2019-03-29T11:32:00.639Z,1003.03
2019-03-29T11:33:00.634Z,1003.02
2019-03-29T11:34:00.642Z,1003.06
2019-03-29T11:35:00.639Z,1003.1
2019-03-29T11:36:00.645Z,1003.05
2019-03-29T11:37:00.636Z,1003.08
2019-03-29T11:38:00.633Z,1003.08
2019-03-29T11:39:00.632Z,1002.98
2019-03-29T11:40:00.634Z,1002.97
2019-03-29T11:41:00.634Z,1003.02
2019-03-29T11:42:03.267Z,1003.07
2019-03-29T11:43:00.641Z,1003.04
2019-03-29T11:44:00.640Z,1003.08
2019-03-29T11:45:00.636Z,1003.06
2019-03-29T11:46:00.640Z,1003.07
2019-03-29T11:47:00.626Z,1003.05
2019-03-29T11:48:07.871Z,1003.06
2019-03-29T11:49:00.627Z,1003.03
2019-03-29T11:50:00.626Z,1002.98
2019-03-29T11:51:00.624Z,1002.95
2019-03-29T11:52:00.623Z,1002.97
2019-03-29T11:53:00.623Z,1002.89
2019-03-29T11:54:00.623Z,1002.93
2019-03-29T11:55:00.623Z,1002.87
2019-03-29T11:56:00.885Z,1002.88
2019-03-29T11:57:00.622Z,1002.81
2019-03-29T11:58:00.620Z,1002.86
2019-03-29T11:59:00.621Z,1002.78
2019-03-29T12:00:00.620Z,1002.89
2019-03-29T12:01:00.619Z,1002.83
2019-03-29T12:02:00.616Z,1002.8
2019-03-29T12:03:00.619Z,1002.84
2019-03-29T12:04:00.636Z,1002.79
2019-03-29T12:05:00.616Z,1002.82
2019-03-29T12:06:00.618Z,1002.79
2019-03-29T12:07:03.362Z,1002.83
2019-03-29T12:08:00.622Z,1002.81